Wichita Falls, TX (76310)

9:15 AM CDT on June 02, 2015 (GMT -0500)
Candlewood | | Change Station
CLOSE
Current Station
Personal Weather Station
Location: Wichita Falls, TX
Elevation: 984 ft
Nearby Weather Stations
Active Advisory: Flood Warning

Elev 984 ft 33.85 °N, 98.55 °W | Updated 36 seconds ago

Clear
Clear
75.6 °F
Feels Like 77 °F
N
6.5
Wind Variable Wind from SSE
Gusts 7.4 mph

Today
High -- | Low -- °F
--% Chance of Precip.
Yesterday
High -- | Low -- °F
Precip. -- in
6:24 AM 8:40 PM
Full, 100% visible
Pressure 30.02 in
Visibility 10.0 miles
Clouds Clear
Heat Index 77 °F
Dew Point 66 °F
Humidity 73%
Rainfall 0.00 in
Snow Depth Not available.
UV 3.0 out of 12
Pollen 6.50 out of 12
Air Quality Not available.
Flu Activity Local Activity
METAR KCWC 021355Z AUTO 16012G16KT 10SM CLR 24/18 A3002 RMK AO2 T02400180

More Conditions Fewer Conditions

Pressure 30.02 in
Visibility 10.0 miles
Clouds Clear
Heat Index 77 °F
Dew Point 66 °F
Humidity 73%
Rainfall 0.00 in
Snow Depth Not available.
UV 3.0 out of 12
Pollen 6.50 out of 12
Air Quality Not available.
Flu Activity Local Activity
METAR KCWC 021355Z AUTO 16012G16KT 10SM CLR 24/18 A3002 RMK AO2 T02400180

More Conditions Fewer Conditions

10-Day Weather Forecast

Almanac

Astronomy

Jun. 02, 2015 Rise Set
Actual Time
Civil Twilight
Nautical Twilight
Astronomical Twilight
Moon
Length of Visible Light
Length of Day
Tomorrow will be .
, % of the Moon is Illuminated

Today's Extremes

State Highs State Lows

Community

WunderPhotos

Upload Photos

1,825,917 photos uploaded!

WunderBlogs® & News

Nearby

Air Quality

  Air Quality AQ Index Pollutant
Not available.

Snow Depth

Station Depth Elevation

Earthquake Activity

City Distance Mag. Time & Date
Minimum magnitude displayed is 2.5.

Coastal Water Temperatures

Place Temperature

Stations

Nearby Weather Stations

Station Location Temp. Windchill Dew Point Humidity Wind Precip. Elev Updated Type
                   
Flood Warning
Statement as of 8:03 AM CDT on June 02, 2015

... Flood Warning extended until Wednesday evening...

the Flood Warning continues for
the Beaver Creek near Electra.

* Until Wednesday evening... or until the warning is cancelled.

* At 7:00 am Tuesday the stage was 26.7 feet.

* Moderate flooding is occurring and moderate flooding is forecast.

* Flood stage is 24.0 feet.

* Forecast... the Beaver Creek will continue rising and crest near
26.8 feet early Tuesday afternoon. The Beaver Creek will fall below
flood stage late Wednesday afternoon.

* Impact... at 27.0 feet... widespread flood levels up to 3 feet in
depth cover farm and range lands... and may inundate some oil and
gas facilities... along and near the creek in southern Wilbarger
County and southwestern Wichita County.



Lat... Lon 3392 9923 3397 9930 3402 9909 3392 9882
      3386 9881 3396 9911